Terminal Aerodrome Forecast
Issued by NWS Charleston, SC

Home | Current Version | Previous Version | Text Only | Print | Product List | Glossary On
Versions: 1 2 3 4 5 6 7 8 9 10 11 12 13 14
000
FTUS42 KCHS 041120
TAFCHS
TAF
KCHS 041120Z 0412/0512 04005KT P6SM BKN090
     FM041600 06009KT P6SM SCT030 OVC060
     FM042100 09009KT P6SM -SHRA SCT020 OVC035
     FM042300 10009KT 6SM -RA BR SCT015 BKN025
     FM050500 34004KT 5SM -RA BR SCT008 BKN015=

USA.gov is the U.S. government's official web portal to all federal, state and local government web resources and services.